Impacts METAR Board
IDs:

KHUM - Houma/Terrebonne Arp, LA, US

Updated at: 0500 UTC 18 Oct 2018
Potential Impact None Slight Moderate High
Time 17/17Z 17/18Z 17/19Z 17/20Z 17/21Z 17/22Z 17/23Z 18/00Z 18/01Z 18/02Z 18/03Z 18/04Z 18/05Z
Temp77 75 75 75 75 75 73 73 73 72 72 71 71
Dewpt73 73 73 73 72 72 72 70 70 69 69 69 68
Altim30.16 30.15 30.12 30.12 30.12 30.12 30.14 30.15 30.17 30.18 30.20 30.21 30.20
VIS4 5 5 4 4 7 7 7 7 10 7 7 10
CIG6 6 6 6 8 10 10 12 18 -- 10 10 10
CoverOVCOVCOVCOVCOVCOVCOVCOVCOVCSCTOVCOVCOVC
FltCatIFRIFRIFRIFRIFRMVFRMVFRMVFRMVFRVFRMVFRMVFRMVFR
WXBRBRBRBRBR----------------
WDir30201040203030202030304050
WSpd9 11 8 9 8 9 11 9 9 7 12 6 11
WGst-- -- -- -- -- -- 15 -- 15 -- -- -- --
Raw hourly METARs
KHUM 171650Z 03009KT 4SM BR OVC006 25/23 A3016
KHUM 171747Z 02011KT 5SM BR OVC006 24/23 A3015
KHUM 171850Z 01008KT 5SM BR OVC006 24/23 A3012
KHUM 171950Z 04009KT 4SM BR OVC006 24/23 A3012
KHUM 172055Z 02008KT 4SM BR OVC008 24/22 A3012
KHUM 172149Z 03009KT 7SM OVC010 24/22 A3012
KHUM 172250Z 03011G15KT 7SM OVC010 23/22 A3014
KHUM 172348Z 02009KT 7SM OVC012 23/21 A3015 RMK LAST
KHUM 180055Z AUTO 02009G15KT 7SM SCT013 OVC018 23/21 A3017 RMK AO2 T02280210
KHUM 180155Z AUTO 03007KT 10SM SCT010 SCT023 22/21 A3018 RMK AO2 T02220207
KHUM 180255Z AUTO 03012KT 7SM OVC010 22/21 A3020 RMK AO2 T02200205
KHUM 180355Z AUTO 04006KT 7SM OVC010 22/21 A3021 RMK AO2 T02180205
KHUM 180455Z AUTO 05011KT 10SM OVC010 22/20 A3020 RMK AO2 LTG DSNT SW T02170201



Page loaded:  05:24 UTC  |   10:24 PM Pacific  |   11:24 PM Mountain  |   12:24 AM Central  |   01:24 AM Eastern

 

ADVISORIES

FORECASTS

FORECASTS

OBSERVATIONS

USER TOOLS

ABOUT US